createdAt,value
2022-08-02T00:00:33.584Z,99.96
2022-08-02T00:03:00.214Z,99.99
2022-08-02T00:05:27.175Z,100.00
2022-08-02T00:07:53.717Z,100.00
2022-08-02T00:10:20.435Z,100.00
2022-08-02T00:12:47.180Z,100.00
2022-08-02T00:15:16.029Z,100.00
2022-08-02T00:17:44.081Z,100.00
2022-08-02T00:20:11.404Z,100.00
2022-08-02T00:22:38.153Z,100.00
2022-08-02T00:25:05.523Z,100.00
2022-08-02T00:27:32.053Z,100.00
2022-08-02T00:29:58.700Z,100.00
2022-08-02T00:32:25.339Z,100.00
2022-08-02T00:34:52.774Z,100.00
2022-08-02T00:37:19.757Z,100.00
2022-08-02T00:39:46.409Z,100.00
2022-08-02T00:42:15.245Z,100.00
2022-08-02T00:44:42.451Z,100.00
2022-08-02T00:47:09.339Z,100.00
2022-08-02T00:49:35.963Z,100.00
2022-08-02T00:52:03.405Z,100.00
2022-08-02T00:54:30.161Z,100.00
2022-08-02T00:56:56.676Z,100.00
2022-08-02T00:59:23.259Z,100.00
2022-08-02T01:01:55.766Z,100.00
2022-08-02T01:04:30.010Z,100.00
2022-08-02T01:06:59.881Z,100.00
2022-08-02T01:09:26.708Z,100.00
2022-08-02T01:11:53.458Z,100.00
2022-08-02T01:14:21.836Z,100.00
2022-08-02T01:17:06.887Z,100.00
2022-08-02T01:19:58.132Z,100.00
2022-08-02T01:23:01.560Z,100.00
2022-08-02T01:25:57.158Z,100.00
2022-08-02T01:28:42.544Z,100.00
2022-08-02T01:31:34.583Z,100.00
2022-08-02T01:34:06.143Z,100.00
2022-08-02T01:36:43.026Z,100.00
2022-08-02T01:39:26.895Z,100.00
2022-08-02T01:42:01.411Z,100.00
2022-08-02T01:44:31.879Z,100.00
2022-08-02T01:47:04.820Z,100.00
2022-08-02T01:49:34.308Z,100.00
2022-08-02T01:52:03.113Z,100.00
2022-08-02T01:54:32.995Z,100.00
2022-08-02T01:57:03.999Z,100.00
2022-08-02T01:59:31.249Z,100.00
2022-08-02T02:01:59.643Z,100.00
2022-08-02T02:04:29.299Z,100.00
2022-08-02T02:06:57.519Z,100.00
2022-08-02T02:09:28.683Z,100.00
2022-08-02T02:12:11.941Z,100.00
2022-08-02T02:14:42.767Z,100.00
2022-08-02T02:17:53.092Z,100.00
2022-08-02T02:20:08.762Z,100.00
2022-08-02T02:22:35.439Z,100.00
2022-08-02T02:25:02.189Z,100.00
2022-08-02T02:27:34.444Z,100.00
2022-08-02T02:30:06.449Z,100.00
2022-08-02T02:32:35.024Z,100.00
2022-08-02T02:35:03.490Z,100.00
2022-08-02T02:37:32.590Z,100.00
2022-08-02T02:39:59.949Z,100.00
2022-08-02T02:42:31.275Z,100.00
2022-08-02T02:45:00.327Z,100.00
2022-08-02T02:47:40.595Z,100.00
2022-08-02T02:50:09.182Z,100.00
2022-08-02T02:52:38.533Z,100.00
2022-08-02T02:55:06.828Z,100.00
2022-08-02T02:57:34.115Z,100.00
2022-08-02T03:00:02.064Z,100.00
2022-08-02T03:02:29.120Z,100.00
2022-08-02T03:04:58.267Z,100.00
2022-08-02T03:07:26.530Z,100.00
2022-08-02T03:09:54.355Z,100.00
2022-08-02T03:12:28.830Z,100.00
2022-08-02T03:15:02.478Z,100.00
2022-08-02T03:17:55.899Z,100.00
2022-08-02T03:20:22.662Z,100.00
2022-08-02T03:22:49.882Z,100.00
2022-08-02T03:25:17.960Z,100.00
2022-08-02T03:27:44.970Z,100.00
2022-08-02T03:30:13.407Z,100.00
2022-08-02T03:32:42.800Z,100.00
2022-08-02T03:35:12.068Z,100.00
2022-08-02T03:37:40.257Z,100.00
2022-08-02T03:40:08.878Z,100.00
2022-08-02T03:42:36.002Z,100.00
2022-08-02T03:45:08.407Z,100.00
2022-08-02T03:47:38.320Z,100.00
2022-08-02T03:50:07.591Z,100.00
2022-08-02T03:52:34.658Z,100.00
2022-08-02T03:55:01.539Z,100.00
2022-08-02T03:57:28.677Z,100.00
2022-08-02T03:59:55.426Z,100.00
2022-08-02T04:02:22.171Z,100.00
2022-08-02T04:04:48.797Z,100.00
2022-08-02T04:07:15.400Z,100.00
2022-08-02T04:10:02.065Z,100.00
2022-08-02T04:12:28.603Z,100.00
2022-08-02T04:14:55.346Z,100.00
2022-08-02T04:17:23.844Z,100.00
2022-08-02T04:19:54.978Z,100.00
2022-08-02T04:22:29.409Z,100.00
2022-08-02T04:25:02.044Z,100.00
2022-08-02T04:27:50.316Z,100.00
2022-08-02T04:30:18.183Z,100.00
2022-08-02T04:32:45.869Z,100.00
2022-08-02T04:35:20.855Z,100.00
2022-08-02T04:38:08.837Z,100.00
2022-08-02T04:40:36.354Z,100.00
2022-08-02T04:43:03.399Z,100.00
2022-08-02T04:45:30.986Z,100.00
2022-08-02T04:48:05.793Z,100.00
2022-08-02T04:50:33.863Z,100.00
2022-08-02T04:53:01.102Z,100.00
2022-08-02T04:55:28.414Z,100.00
2022-08-02T04:57:55.617Z,100.00
2022-08-02T05:00:22.637Z,100.00
2022-08-02T05:02:50.320Z,100.00
2022-08-02T05:05:17.179Z,100.00
2022-08-02T05:07:44.023Z,100.00
2022-08-02T05:10:11.320Z,100.00
2022-08-02T05:12:39.264Z,100.00
2022-08-02T05:15:06.745Z,100.00
2022-08-02T05:17:36.023Z,100.00
2022-08-02T05:20:02.765Z,100.00
2022-08-02T05:22:29.599Z,100.00
2022-08-02T05:24:56.118Z,100.00
2022-08-02T05:27:22.786Z,100.00
2022-08-02T05:29:51.109Z,100.00
2022-08-02T05:32:20.383Z,100.00
2022-08-02T05:34:50.625Z,100.00
2022-08-02T05:37:17.622Z,100.00
2022-08-02T05:39:55.332Z,100.00
2022-08-02T05:42:23.699Z,100.00
2022-08-02T05:44:50.705Z,100.00
2022-08-02T05:47:17.640Z,100.00
2022-08-02T05:49:44.384Z,100.00
2022-08-02T05:52:15.428Z,100.00
2022-08-02T05:54:48.318Z,100.00
2022-08-02T05:57:43.425Z,100.00
2022-08-02T06:00:13.308Z,100.00
2022-08-02T06:03:04.554Z,100.00
2022-08-02T06:05:41.161Z,100.00
2022-08-02T06:08:08.681Z,100.00
2022-08-02T06:10:38.275Z,100.00
2022-08-02T06:13:14.333Z,100.00
2022-08-02T06:15:52.963Z,100.00
2022-08-02T06:18:28.215Z,100.00
2022-08-02T06:20:58.630Z,100.00
2022-08-02T06:23:32.487Z,100.00
2022-08-02T06:26:03.842Z,100.00
2022-08-02T06:28:31.303Z,100.00
2022-08-02T06:30:59.101Z,100.00
2022-08-02T06:33:25.718Z,100.00
2022-08-02T06:36:22.268Z,100.00
2022-08-02T06:39:01.710Z,100.00
2022-08-02T06:41:31.219Z,100.00
2022-08-02T06:44:27.390Z,100.00
2022-08-02T06:47:10.853Z,100.00
2022-08-02T06:49:52.406Z,100.00
2022-08-02T06:52:30.557Z,100.00
2022-08-02T06:54:58.959Z,100.00
2022-08-02T06:57:26.008Z,100.00
2022-08-02T06:59:52.785Z,100.00
2022-08-02T07:02:19.634Z,100.00
2022-08-02T07:04:47.354Z,100.00
2022-08-02T07:07:13.967Z,100.00
2022-08-02T07:09:57.071Z,100.00
2022-08-02T07:12:27.732Z,100.00
2022-08-02T07:14:54.354Z,100.00
2022-08-02T07:17:21.105Z,100.00
2022-08-02T07:19:47.846Z,100.00
2022-08-02T07:22:15.036Z,100.00
2022-08-02T07:24:41.769Z,100.00
2022-08-02T07:27:11.624Z,100.00
2022-08-02T07:29:45.987Z,100.00
2022-08-02T07:32:25.354Z,100.00
2022-08-02T07:34:55.084Z,100.00
2022-08-02T07:37:35.305Z,100.00
2022-08-02T07:40:15.096Z,100.00
2022-08-02T07:42:47.014Z,100.00
2022-08-02T07:45:14.704Z,100.00
2022-08-02T07:47:43.587Z,99.73
2022-08-02T07:50:11.854Z,100.00
2022-08-02T07:52:39.312Z,100.00
2022-08-02T07:55:06.365Z,100.00
2022-08-02T07:57:33.010Z,99.70
2022-08-02T08:00:00.390Z,92.34
2022-08-02T08:02:27.009Z,91.16
2022-08-02T08:04:53.635Z,89.59
2022-08-02T08:07:20.811Z,88.69
2022-08-02T08:09:47.414Z,88.62
2022-08-02T08:12:14.634Z,88.40
2022-08-02T08:14:42.378Z,86.97
2022-08-02T08:17:09.181Z,86.71
2022-08-02T08:19:51.349Z,86.91
2022-08-02T08:22:18.775Z,85.15
2022-08-02T08:24:45.462Z,84.93
2022-08-02T08:27:11.964Z,84.41
2022-08-02T08:29:38.644Z,85.49
2022-08-02T08:32:05.872Z,84.63
2022-08-02T08:34:32.439Z,83.55
2022-08-02T08:36:59.349Z,82.18
2022-08-02T08:39:26.351Z,81.32
2022-08-02T08:41:53.080Z,80.42
2022-08-02T08:44:19.824Z,79.04
2022-08-02T08:46:49.290Z,78.08
2022-08-02T08:49:21.988Z,76.96
2022-08-02T08:51:51.332Z,76.42
2022-08-02T08:54:19.171Z,75.89
2022-08-02T08:56:46.543Z,76.28
2022-08-02T08:59:13.276Z,76.31
2022-08-02T09:01:50.009Z,76.69
2022-08-02T09:04:19.279Z,76.19
2022-08-02T09:06:45.830Z,75.48
2022-08-02T09:09:12.497Z,75.83
2022-08-02T09:11:39.144Z,73.56
2022-08-02T09:14:06.445Z,72.90
2022-08-02T09:16:37.901Z,73.06
2022-08-02T09:19:24.825Z,70.70
2022-08-02T09:22:02.225Z,69.48
2022-08-02T09:24:31.760Z,68.93
2022-08-02T09:26:58.551Z,66.92
2022-08-02T09:29:26.356Z,66.02
2022-08-02T09:32:03.069Z,67.41
2022-08-02T09:34:51.500Z,67.96
2022-08-02T09:37:29.196Z,68.09
2022-08-02T09:39:59.841Z,67.36
2022-08-02T09:42:30.729Z,67.92
2022-08-02T09:45:02.369Z,64.88
2022-08-02T09:47:31.075Z,64.57
2022-08-02T09:49:58.853Z,64.30
2022-08-02T09:52:37.038Z,65.54
2022-08-02T09:55:11.773Z,66.92
2022-08-02T09:57:38.861Z,65.55
2022-08-02T10:00:16.175Z,64.23
2022-08-02T10:03:19.338Z,62.45
2022-08-02T10:05:55.885Z,62.58
2022-08-02T10:08:25.464Z,60.23
2022-08-02T10:10:52.320Z,59.89
2022-08-02T10:13:20.173Z,58.43
2022-08-02T10:15:50.474Z,58.43
2022-08-02T10:18:37.118Z,59.18
2022-08-02T10:21:19.576Z,58.37
2022-08-02T10:23:48.970Z,59.08
2022-08-02T10:26:19.185Z,59.60
2022-08-02T10:28:50.158Z,58.04
2022-08-02T10:31:23.019Z,57.77
2022-08-02T10:33:52.848Z,55.69
2022-08-02T10:36:21.362Z,56.42
2022-08-02T10:38:48.100Z,57.02
2022-08-02T10:41:14.837Z,55.30
2022-08-02T10:43:44.214Z,56.02
2022-08-02T10:46:33.731Z,55.98
2022-08-02T10:52:01.937Z,55.92
2022-08-02T10:54:32.340Z,53.94
2022-08-02T10:57:01.350Z,55.09
2022-08-02T10:59:28.297Z,55.23
2022-08-02T11:02:00.877Z,53.70
2022-08-02T11:04:36.662Z,54.81
2022-08-02T11:07:20.654Z,55.52
2022-08-02T11:09:50.020Z,56.60
2022-08-02T11:12:19.171Z,57.57
2022-08-02T11:14:58.530Z,57.13
2022-08-02T11:17:25.476Z,54.48
2022-08-02T11:20:10.888Z,55.97
2022-08-02T11:22:42.062Z,55.64
2022-08-02T11:25:24.250Z,54.79
2022-08-02T11:28:08.726Z,53.17
2022-08-02T11:30:36.241Z,53.16
2022-08-02T11:33:03.806Z,53.43
2022-08-02T11:35:39.814Z,53.37
2022-08-02T11:38:18.076Z,53.22
2022-08-02T11:40:46.205Z,52.21
2022-08-02T11:43:24.892Z,49.43
2022-08-02T11:45:52.077Z,49.62
2022-08-02T11:48:38.617Z,50.20
2022-08-02T11:51:06.553Z,50.43
2022-08-02T11:53:51.615Z,51.90
2022-08-02T11:56:32.801Z,52.60
2022-08-02T11:59:08.863Z,52.92
2022-08-02T12:01:45.212Z,52.71
2022-08-02T12:04:17.281Z,52.25
2022-08-02T12:06:44.890Z,52.45
2022-08-02T12:09:18.811Z,51.43
2022-08-02T12:11:49.240Z,50.82
2022-08-02T12:14:15.960Z,50.38
2022-08-02T12:16:42.707Z,51.33
2022-08-02T12:19:09.354Z,52.00
2022-08-02T12:21:36.097Z,52.21
2022-08-02T12:24:02.809Z,52.36
2022-08-02T12:26:30.607Z,51.03
2022-08-02T12:29:00.878Z,50.40
2022-08-02T12:31:57.542Z,49.97
2022-08-02T12:34:31.501Z,50.07
2022-08-02T12:37:06.367Z,49.25
2022-08-02T12:39:42.486Z,50.18
2022-08-02T12:42:12.469Z,50.32
2022-08-02T12:44:51.317Z,50.95
2022-08-02T12:47:18.201Z,51.40
2022-08-02T12:50:12.431Z,50.88
2022-08-02T12:52:39.657Z,49.87
2022-08-02T12:55:25.226Z,48.55
2022-08-02T12:57:55.000Z,49.26
2022-08-02T13:00:40.340Z,48.75
2022-08-02T13:04:07.400Z,47.17
2022-08-02T13:05:57.317Z,46.79
2022-08-02T13:08:25.048Z,47.07
2022-08-02T13:10:51.550Z,47.67
2022-08-02T13:13:18.265Z,48.56
2022-08-02T13:15:48.858Z,48.76
2022-08-02T13:18:17.897Z,49.63
2022-08-02T13:20:45.771Z,51.17
2022-08-02T13:23:21.139Z,52.75
2022-08-02T13:25:52.858Z,53.47
2022-08-02T13:28:19.813Z,52.31
2022-08-02T13:30:46.966Z,51.81
2022-08-02T13:33:14.396Z,50.26
2022-08-02T13:35:42.104Z,48.19
2022-08-02T13:38:08.740Z,47.61
2022-08-02T13:41:02.076Z,46.34
2022-08-02T13:43:22.404Z,45.19
2022-08-02T13:45:49.503Z,44.56
2022-08-02T13:48:16.948Z,43.77
2022-08-02T13:50:45.110Z,43.10
2022-08-02T13:53:11.860Z,42.45
2022-08-02T13:55:38.508Z,42.30
2022-08-02T13:58:10.677Z,41.48
2022-08-02T14:00:37.416Z,41.91
2022-08-02T14:03:05.551Z,40.58
2022-08-02T14:05:46.904Z,40.36
2022-08-02T14:08:19.499Z,39.49
2022-08-02T14:10:50.035Z,39.21
2022-08-02T14:13:18.079Z,38.31
2022-08-02T14:15:45.132Z,39.15
2022-08-02T14:18:12.425Z,39.18
2022-08-02T14:20:39.038Z,38.78
2022-08-02T14:23:05.661Z,38.90
2022-08-02T14:25:32.656Z,38.37
2022-08-02T14:27:59.212Z,39.10
2022-08-02T14:30:25.762Z,38.53
2022-08-02T14:32:52.464Z,38.00
2022-08-02T14:35:19.311Z,38.05
2022-08-02T14:37:45.897Z,38.13
2022-08-02T14:40:31.171Z,38.17
2022-08-02T14:43:02.274Z,38.92
2022-08-02T14:45:36.608Z,39.08
2022-08-02T14:48:08.888Z,37.58
2022-08-02T14:50:35.455Z,37.62
2022-08-02T14:53:01.964Z,38.32
2022-08-02T14:55:28.469Z,39.05
2022-08-02T14:57:55.053Z,40.10
2022-08-02T15:00:21.743Z,41.67
2022-08-02T15:02:48.446Z,42.59
2022-08-02T15:05:15.032Z,43.75
2022-08-02T15:07:45.321Z,44.38
2022-08-02T15:10:14.449Z,45.00
2022-08-02T15:12:41.012Z,45.76
2022-08-02T15:15:08.176Z,46.63
2022-08-02T15:17:34.854Z,47.39
2022-08-02T15:20:09.394Z,47.50
2022-08-02T15:22:49.467Z,48.59
2022-08-02T15:25:16.424Z,49.31
2022-08-02T15:27:43.037Z,49.79
2022-08-02T15:30:10.076Z,50.02
2022-08-02T15:32:36.943Z,50.53
2022-08-02T15:35:03.989Z,51.07
2022-08-02T15:37:31.303Z,51.33
2022-08-02T15:39:59.430Z,50.55
2022-08-02T15:42:30.851Z,50.38
2022-08-02T15:44:58.207Z,50.71
2022-08-02T15:47:24.760Z,50.49
2022-08-02T15:49:51.555Z,49.59
2022-08-02T15:52:18.217Z,47.72
2022-08-02T15:54:44.924Z,46.45
2022-08-02T15:57:11.569Z,46.52
2022-08-02T15:59:38.308Z,45.72
2022-08-02T16:02:04.996Z,44.81
2022-08-02T16:04:32.311Z,43.72
2022-08-02T16:07:01.490Z,44.46
2022-08-02T16:09:28.771Z,45.00
2022-08-02T16:11:55.313Z,44.26
2022-08-02T16:14:21.962Z,44.77
2022-08-02T16:16:48.593Z,44.69
2022-08-02T16:19:37.549Z,45.32
2022-08-02T16:22:02.262Z,45.43
2022-08-02T16:24:28.872Z,45.04
2022-08-02T16:26:55.492Z,45.12
2022-08-02T16:29:22.196Z,44.67
2022-08-02T16:31:49.144Z,43.46
2022-08-02T16:34:17.354Z,41.91
2022-08-02T16:36:44.876Z,42.30
2022-08-02T16:39:11.816Z,41.80
2022-08-02T16:41:51.124Z,42.35
2022-08-02T16:44:29.196Z,43.48
2022-08-02T16:47:12.304Z,44.93
2022-08-02T16:50:07.507Z,45.69
2022-08-02T16:52:27.413Z,46.87
2022-08-02T16:54:54.063Z,47.31
2022-08-02T16:57:20.989Z,48.56
2022-08-02T16:59:57.973Z,49.28
2022-08-02T17:02:27.988Z,49.07
2022-08-02T17:04:55.453Z,49.26
2022-08-02T17:08:10.475Z,50.33
2022-08-02T17:10:10.105Z,50.93
2022-08-02T17:12:37.959Z,50.86
2022-08-02T17:16:08.385Z,51.33
2022-08-02T17:17:52.539Z,51.61
2022-08-02T17:20:20.080Z,51.23
2022-08-02T17:22:47.561Z,51.56
2022-08-02T17:25:16.515Z,52.15
2022-08-02T17:27:44.280Z,52.50
2022-08-02T17:30:12.595Z,53.18
2022-08-02T17:32:39.847Z,53.38
2022-08-02T17:35:12.918Z,54.06
2022-08-02T17:37:42.454Z,54.50
2022-08-02T17:40:09.910Z,54.91
2022-08-02T17:42:36.765Z,55.29
2022-08-02T17:45:16.298Z,55.59
2022-08-02T17:47:43.579Z,55.87
2022-08-02T17:50:30.333Z,56.03
2022-08-02T17:52:57.163Z,56.49
2022-08-02T17:55:24.017Z,56.94
2022-08-02T17:57:57.694Z,57.54
2022-08-02T18:00:33.840Z,57.99
2022-08-02T18:03:01.647Z,58.04
2022-08-02T18:05:40.449Z,58.95
2022-08-02T18:08:21.549Z,59.45
2022-08-02T18:10:49.831Z,59.64
2022-08-02T18:13:16.360Z,60.06
2022-08-02T18:15:45.716Z,60.35
2022-08-02T18:18:14.377Z,60.80
2022-08-02T18:20:41.732Z,61.39
2022-08-02T18:23:13.463Z,61.60
2022-08-02T18:25:45.643Z,61.70
2022-08-02T18:28:14.828Z,62.08
2022-08-02T18:30:42.141Z,63.08
2022-08-02T18:33:57.587Z,63.18
2022-08-02T18:35:56.015Z,63.45
2022-08-02T18:38:24.057Z,63.16
2022-08-02T18:40:51.412Z,63.33
2022-08-02T18:43:19.864Z,63.93
2022-08-02T18:46:05.287Z,64.65
2022-08-02T18:48:38.458Z,66.21
2022-08-02T18:51:06.354Z,68.14
2022-08-02T18:53:41.789Z,68.75
2022-08-02T18:56:19.337Z,69.96
2022-08-02T18:58:48.323Z,73.76
2022-08-02T19:01:31.341Z,73.61
2022-08-02T19:04:00.255Z,72.81
2022-08-02T19:06:28.850Z,72.55
2022-08-02T19:09:04.891Z,72.10
2022-08-02T19:11:35.188Z,75.45
2022-08-02T19:14:02.529Z,73.61
2022-08-02T19:16:37.812Z,73.33
2022-08-02T19:19:07.771Z,76.15
2022-08-02T19:22:16.318Z,75.63
2022-08-02T19:24:21.329Z,75.95
2022-08-02T19:26:52.095Z,76.00
2022-08-02T19:29:42.361Z,76.28
2022-08-02T19:32:41.617Z,76.91
2022-08-02T19:34:55.541Z,77.78
2022-08-02T19:37:22.157Z,78.10
2022-08-02T19:39:48.799Z,78.35
2022-08-02T19:42:17.170Z,78.61
2022-08-02T19:44:45.868Z,78.20
2022-08-02T19:47:19.334Z,78.23
2022-08-02T19:49:48.825Z,81.40
2022-08-02T19:52:21.066Z,80.30
2022-08-02T19:54:55.652Z,80.26
2022-08-02T19:57:24.945Z,80.89
2022-08-02T19:59:53.907Z,82.21
2022-08-02T20:02:21.255Z,81.74
2022-08-02T20:04:50.358Z,83.08
2022-08-02T20:07:50.011Z,82.26
2022-08-02T20:10:11.270Z,82.44
2022-08-02T20:12:41.859Z,82.68
2022-08-02T20:15:15.111Z,82.91
2022-08-02T20:17:58.676Z,83.67
2022-08-02T20:20:30.561Z,83.78
2022-08-02T20:22:57.419Z,83.77
2022-08-02T20:25:24.750Z,83.72
2022-08-02T20:27:56.307Z,84.24
2022-08-02T20:30:25.331Z,84.20
2022-08-02T20:32:53.890Z,84.40
2022-08-02T20:35:27.493Z,85.20
2022-08-02T20:38:00.577Z,85.16
2022-08-02T20:40:29.302Z,85.43
2022-08-02T20:42:56.326Z,86.47
2022-08-02T20:45:23.920Z,87.18
2022-08-02T20:47:54.755Z,87.42
2022-08-02T20:50:31.232Z,87.68
2022-08-02T20:53:00.473Z,87.91
2022-08-02T20:55:30.796Z,88.06
2022-08-02T20:58:00.891Z,89.03
2022-08-02T21:00:47.107Z,90.75
2022-08-02T21:03:15.886Z,93.03
2022-08-02T21:05:55.922Z,95.02
2022-08-02T21:08:23.330Z,93.55
2022-08-02T21:10:52.741Z,92.74
2022-08-02T21:13:22.567Z,93.15
2022-08-02T21:15:51.378Z,92.95
2022-08-02T21:18:28.734Z,94.11
2022-08-02T21:21:05.711Z,94.03
2022-08-02T21:23:36.370Z,93.87
2022-08-02T21:26:04.057Z,93.62
2022-08-02T21:28:34.952Z,93.86
2022-08-02T21:31:12.410Z,94.39
2022-08-02T21:33:56.949Z,94.52
2022-08-02T21:36:30.652Z,96.39
2022-08-02T21:38:59.969Z,96.76
2022-08-02T21:41:40.018Z,97.84
2022-08-02T21:44:15.980Z,99.05
2022-08-02T21:46:51.130Z,98.80
2022-08-02T21:49:20.563Z,99.11
2022-08-02T21:51:49.662Z,98.09
2022-08-02T21:54:21.329Z,98.17
2022-08-02T21:56:52.729Z,99.56
2022-08-02T21:59:25.934Z,98.44
2022-08-02T22:01:56.689Z,97.92
2022-08-02T22:04:24.446Z,98.60
2022-08-02T22:06:51.253Z,98.89
2022-08-02T22:09:44.351Z,98.45
2022-08-02T22:12:10.107Z,98.99
2022-08-02T22:14:39.696Z,98.77
2022-08-02T22:17:08.653Z,98.75
2022-08-02T22:19:36.218Z,99.06
2022-08-02T22:22:02.878Z,99.58
2022-08-02T22:24:29.756Z,99.88
2022-08-02T22:26:57.913Z,99.77
2022-08-02T22:29:25.079Z,99.90
2022-08-02T22:31:52.552Z,99.91
2022-08-02T22:34:37.182Z,99.97
2022-08-02T22:37:07.536Z,100.00
2022-08-02T22:39:34.545Z,100.00
2022-08-02T22:42:07.023Z,100.00
2022-08-02T22:44:35.651Z,100.00
2022-08-02T22:47:06.938Z,100.00
2022-08-02T22:49:38.595Z,100.00
2022-08-02T22:52:20.339Z,100.00
2022-08-02T22:54:47.784Z,100.00
2022-08-02T22:57:14.451Z,100.00
2022-08-02T22:59:41.448Z,100.00
2022-08-02T23:02:10.143Z,100.00
2022-08-02T23:04:37.762Z,100.00
2022-08-02T23:07:05.133Z,100.00
2022-08-02T23:09:35.366Z,100.00
2022-08-02T23:12:02.110Z,100.00
2022-08-02T23:14:28.864Z,100.00
2022-08-02T23:16:55.394Z,100.00
2022-08-02T23:19:22.044Z,100.00
2022-08-02T23:22:02.778Z,100.00
2022-08-02T23:24:31.410Z,100.00
2022-08-02T23:26:57.976Z,100.00
2022-08-02T23:29:24.663Z,100.00
2022-08-02T23:31:51.182Z,100.00
2022-08-02T23:34:19.548Z,100.00
2022-08-02T23:36:46.121Z,100.00
2022-08-02T23:39:12.954Z,100.00
2022-08-02T23:41:39.548Z,100.00
2022-08-02T23:44:14.838Z,100.00
2022-08-02T23:46:46.989Z,100.00
2022-08-02T23:49:14.634Z,100.00
2022-08-02T23:51:41.343Z,100.00
2022-08-02T23:54:08.411Z,100.00
2022-08-02T23:56:35.244Z,100.00
2022-08-02T23:59:01.800Z,100.00
